Time;durP1;ratioP1;P1;durP2;ratioP2;P2;SDS_P1;SDS_P2;PMS_P1;PMS_P2;Temp;Humidity;BMP_temperature;BMP_pressure;BME280_temperature;BME280_humidity;BME280_pressure;Samples;Min_cycle;Max_cycle;Signal;HPM_P1;HPM_P2
2023/07/04 00:01:33;;;;;;;0.30;0.30;;;12.20;99.90;;;;;;5053071;28;20052;-64
2023/07/04 00:03:58;;;;;;;0.30;0.30;;;10.20;99.90;;;;;;5052565;28;20073;-64
2023/07/04 00:06:29;;;;;;;0.40;0.40;;;9.90;99.90;;;;;;5034850;28;20052;-64
2023/07/04 00:08:55;;;;;;;0.20;0.20;;;11.70;99.90;;;;;;5052733;28;20056;-64
2023/07/04 00:11:21;;;;;;;2.38;1.35;;;9.70;99.90;;;;;;5052271;28;20048;-72
2023/07/04 00:13:49;;;;;;;0.20;0.20;;;10.20;99.90;;;;;;5034658;28;20175;-65
2023/07/04 00:16:15;;;;;;;1.10;0.50;;;11.80;99.90;;;;;;5018250;28;20128;-63
2023/07/04 00:18:42;;;;;;;0.25;0.25;;;12.00;99.90;;;;;;5052861;28;20184;-63
2023/07/04 00:21:14;;;;;;;1.10;0.32;;;10.00;99.90;;;;;;5034983;28;20134;-64
2023/07/04 00:23:44;;;;;;;0.40;0.40;;;11.50;99.90;;;;;;5052761;28;20049;-63
2023/07/04 00:26:12;;;;;;;0.28;0.28;;;10.00;99.90;;;;;;5052660;28;20175;-64
2023/07/04 00:28:42;;;;;;;1.65;0.80;;;10.00;99.90;;;;;;5052589;28;20389;-63
2023/07/04 00:31:11;;;;;;;0.25;0.25;;;10.60;99.90;;;;;;5052429;28;20186;-66
2023/07/04 00:33:37;;;;;;;0.30;0.30;;;11.50;99.90;;;;;;5052336;28;20131;-67
2023/07/04 00:36:05;;;;;;;0.20;0.20;;;11.70;99.90;;;;;;5052287;28;20132;-65
2023/07/04 00:38:35;;;;;;;0.20;0.20;;;11.60;99.90;;;;;;5052068;28;20048;-63
2023/07/04 00:41:03;;;;;;;0.30;0.30;;;10.80;99.90;;;;;;5051954;28;20480;-63
2023/07/04 00:43:56;;;;;;;0.20;0.20;;;9.80;99.90;;;;;;5052157;28;20485;-64
2023/07/04 00:46:28;;;;;;;0.57;0.57;;;9.90;99.90;;;;;;5051991;28;20048;-64
2023/07/04 00:48:56;;;;;;;0.30;0.30;;;9.70;99.90;;;;;;5052036;28;20049;-64
2023/07/04 00:51:22;;;;;;;0.35;0.35;;;11.50;99.90;;;;;;5051794;28;20084;-65
2023/07/04 00:53:50;;;;;;;;;;;10.00;99.90;;;;;;5052458;28;20056;-63
2023/07/04 00:56:15;;;;;;;1.08;1.05;;;11.70;99.90;;;;;;5051947;28;19925;-64
2023/07/04 00:58:43;;;;;;;0.32;0.32;;;10.40;99.90;;;;;;5051845;28;20401;-63
2023/07/04 01:01:09;;;;;;;0.30;0.30;;;11.80;99.90;;;;;;5051690;28;20097;-66
2023/07/04 01:03:35;;;;;;;0.38;0.38;;;10.50;99.90;;;;;;5051590;28;20067;-64
2023/07/04 01:06:24;;;;;;;0.28;0.28;;;10.10;99.90;;;;;;5051524;28;20061;-63
2023/07/04 01:08:56;;;;;;;0.20;0.20;;;9.50;99.90;;;;;;5033992;28;20052;-65
2023/07/04 01:11:30;;;;;;;0.98;0.93;;;11.20;99.90;;;;;;5033897;28;20082;-63
2023/07/04 01:13:57;;;;;;;0.40;0.40;;;10.50;99.90;;;;;;5051502;28;20057;-63
2023/07/04 01:16:23;;;;;;;0.30;0.30;;;11.30;99.90;;;;;;5051316;28;20048;-65
2023/07/04 01:18:55;;;;;;;0.45;0.45;;;11.90;99.90;;;;;;5051555;28;20056;-64
2023/07/04 01:21:24;;;;;;;0.20;0.20;;;12.00;99.90;;;;;;5051390;28;20128;-66
2023/07/04 01:24:05;;;;;;;0.30;0.30;;;10.40;99.90;;;;;;5051301;28;20183;-64
2023/07/04 01:26:43;;;;;;;0.30;0.30;;;10.70;99.90;;;;;;5051278;28;20053;-68
2023/07/04 01:29:13;;;;;;;1.63;0.47;;;11.90;99.90;;;;;;5050837;28;20049;-64
2023/07/04 01:31:40;;;;;;;0.30;0.30;;;12.20;99.90;;;;;;5051312;28;20166;-63
2023/07/04 01:34:08;;;;;;;0.50;0.50;;;12.60;99.90;;;;;;5033211;28;20055;-64
2023/07/04 01:36:37;;;;;;;0.30;0.30;;;10.30;99.90;;;;;;5051120;28;20052;-64
2023/07/04 01:39:04;;;;;;;0.35;0.35;;;10.20;99.90;;;;;;5050986;28;20053;-66
2023/07/04 01:41:30;;;;;;;0.57;0.57;;;11.40;99.90;;;;;;5032981;28;20041;-64
2023/07/04 01:44:05;;;;;;;0.55;0.55;;;12.80;99.90;;;;;;5051233;28;20048;-63
2023/07/04 01:46:31;;;;;;;0.20;0.20;;;11.90;99.90;;;;;;5050957;28;20053;-63
2023/07/04 01:48:57;;;;;;;0.40;0.40;;;10.40;99.90;;;;;;5051113;28;20051;-65
2023/07/04 01:51:29;;;;;;;0.55;0.55;;;10.00;99.90;;;;;;5051000;28;20049;-64
2023/07/04 01:53:55;;;;;;;0.30;0.30;;;10.40;99.90;;;;;;5051164;28;20048;-64
2023/07/04 01:56:21;;;;;;;0.20;0.20;;;12.90;99.90;;;;;;5051088;28;20040;-64
2023/07/04 01:58:46;;;;;;;0.20;0.20;;;12.70;99.90;;;;;;5050896;28;20049;-63
2023/07/04 02:01:12;;;;;;;0.30;0.30;;;12.30;99.90;;;;;;5050836;28;20147;-63
2023/07/04 02:03:38;;;;;;;0.20;0.20;;;11.10;99.90;;;;;;5032626;28;20060;-63
2023/07/04 02:06:04;;;;;;;0.50;0.50;;;10.80;99.90;;;;;;5050720;28;20057;-67
2023/07/04 02:08:29;;;;;;;0.40;0.40;;;11.70;99.90;;;;;;5050627;28;20055;-63
2023/07/04 02:10:55;;;;;;;0.28;0.28;;;10.60;99.90;;;;;;5050841;28;20084;-62
2023/07/04 02:13:21;;;;;;;0.20;0.20;;;13.20;99.90;;;;;;5051040;28;20393;-63
2023/07/04 02:15:48;;;;;;;0.30;0.30;;;12.90;99.90;;;;;;5050632;28;20041;-62
2023/07/04 02:18:13;;;;;;;0.63;0.57;;;10.90;99.90;;;;;;5050610;28;20049;-66
2023/07/04 02:20:40;;;;;;;0.20;0.20;;;10.80;99.90;;;;;;5050586;28;20576;-64
2023/07/04 02:23:06;;;;;;;0.20;0.20;;;12.10;99.90;;;;;;5032623;28;20434;-63
2023/07/04 02:25:31;;;;;;;0.30;0.30;;;13.10;99.90;;;;;;5050716;28;20049;-62
2023/07/04 02:27:57;;;;;;;0.30;0.30;;;12.90;99.90;;;;;;5050656;28;20072;-63
2023/07/04 02:30:23;;;;;;;0.20;0.20;;;10.70;99.90;;;;;;5050478;28;20152;-63
2023/07/04 02:32:48;;;;;;;0.20;0.20;;;12.30;99.90;;;;;;5050606;28;20053;-66
2023/07/04 02:35:14;;;;;;;0.25;0.25;;;12.70;99.90;;;;;;5050463;28;20092;-63
2023/07/04 02:37:40;;;;;;;0.30;0.30;;;10.80;99.90;;;;;;5050395;28;20056;-64
2023/07/04 02:40:06;;;;;;;0.20;0.20;;;10.50;99.90;;;;;;5052249;28;20504;-64
2023/07/04 02:42:32;;;;;;;0.20;0.20;;;10.40;99.90;;;;;;5054338;28;20123;-63
2023/07/04 02:44:58;;;;;;;0.20;0.20;;;11.50;99.90;;;;;;5054438;28;20139;-63
2023/07/04 02:47:26;;;;;;;0.20;0.20;;;11.20;99.90;;;;;;5054279;28;20102;-66
2023/07/04 02:49:53;;;;;;;0.40;0.40;;;10.40;99.90;;;;;;5054085;28;20492;-63
2023/07/04 02:52:24;;;;;;;0.32;0.32;;;11.90;99.90;;;;;;5054131;28;20466;-63
2023/07/04 02:54:50;;;;;;;0.30;0.30;;;11.70;99.90;;;;;;5054135;28;20059;-63
2023/07/04 02:57:16;;;;;;;0.73;0.73;;;10.60;99.90;;;;;;5054326;28;20045;-64
2023/07/04 02:59:42;;;;;;;;;;;12.30;99.90;;;;;;5054459;28;20048;-64
2023/07/04 03:02:08;;;;;;;0.20;0.20;;;12.10;99.90;;;;;;5053911;28;19920;-63
2023/07/04 03:04:33;;;;;;;0.30;0.30;;;10.00;99.90;;;;;;5032405;28;20524;-63
2023/07/04 03:06:59;;;;;;;0.30;0.30;;;11.00;99.90;;;;;;5033911;28;20118;-64
2023/07/04 03:09:25;;;;;;;0.30;0.30;;;12.00;99.90;;;;;;5034076;28;20140;-63
2023/07/04 03:11:51;;;;;;;;;;;11.80;99.90;;;;;;5034425;28;20045;-63
2023/07/04 03:14:17;;;;;;;0.75;0.75;;;10.50;99.90;;;;;;5033906;28;20051;-64
2023/07/04 03:16:42;;;;;;;0.30;0.30;;;12.30;99.90;;;;;;5033934;28;20053;-63
2023/07/04 03:19:08;;;;;;;0.40;0.40;;;10.20;99.90;;;;;;5033734;28;20045;-63
2023/07/04 03:21:34;;;;;;;0.35;0.30;;;12.10;99.90;;;;;;5033612;28;20050;-63
2023/07/04 03:23:59;;;;;;;0.20;0.20;;;10.20;99.90;;;;;;5033742;28;20547;-64
2023/07/04 03:26:25;;;;;;;0.43;0.43;;;11.50;99.90;;;;;;5015857;28;20053;-64
2023/07/04 03:28:50;;;;;;;0.90;0.90;;;12.00;99.90;;;;;;5033641;28;20085;-64
2023/07/04 03:31:16;;;;;;;0.47;0.47;;;11.20;99.90;;;;;;5033625;28;20045;-64
2023/07/04 03:33:42;;;;;;;0.30;0.30;;;12.10;99.90;;;;;;5033529;28;20125;-63
2023/07/04 03:36:07;;;;;;;0.57;0.57;;;11.80;99.90;;;;;;5033290;28;20076;-63
2023/07/04 03:38:33;;;;;;;1.00;0.50;;;11.80;99.90;;;;;;5033793;28;20124;-64
2023/07/04 03:40:59;;;;;;;0.40;0.40;;;10.10;99.90;;;;;;5032261;28;20049;-67
2023/07/04 03:43:25;;;;;;;0.40;0.40;;;12.40;99.90;;;;;;5033302;28;20374;-64
2023/07/04 03:45:51;;;;;;;0.30;0.30;;;12.20;99.90;;;;;;5033317;28;20049;-64
2023/07/04 03:48:17;;;;;;;0.20;0.20;;;12.00;99.90;;;;;;5033553;28;20089;-63
2023/07/04 03:50:44;;;;;;;0.20;0.20;;;10.20;99.90;;;;;;5033208;28;20045;-63
2023/07/04 03:53:09;;;;;;;0.38;0.38;;;11.90;99.90;;;;;;5033026;28;20053;-66
2023/07/04 03:55:35;;;;;;;0.20;0.20;;;10.00;99.90;;;;;;5033213;28;20124;-63
2023/07/04 03:58:02;;;;;;;0.57;0.57;;;10.30;99.90;;;;;;5033212;28;20049;-64
2023/07/04 04:00:27;;;;;;;0.30;0.30;;;11.50;99.90;;;;;;5033076;28;20076;-63
2023/07/04 04:02:53;;;;;;;0.25;0.25;;;10.40;99.90;;;;;;5032980;28;20099;-63
2023/07/04 04:05:19;;;;;;;0.30;0.30;;;10.70;99.90;;;;;;5052613;28;20064;-63
2023/07/04 04:07:48;;;;;;;0.30;0.30;;;10.60;99.90;;;;;;5018836;28;20044;-63
2023/07/04 04:10:15;;;;;;;0.22;0.22;;;12.40;99.90;;;;;;5053150;28;20053;-62
2023/07/04 04:12:41;;;;;;;0.20;0.20;;;12.30;99.90;;;;;;5052708;28;20465;-63
2023/07/04 04:15:07;;;;;;;0.20;0.20;;;10.70;99.90;;;;;;5052707;28;20088;-63
2023/07/04 04:17:33;;;;;;;;;;;12.30;99.90;;;;;;5052965;28;20128;-63
2023/07/04 04:19:58;;;;;;;0.20;0.20;;;12.20;99.90;;;;;;5052433;28;20032;-64
2023/07/04 04:22:24;;;;;;;1.17;1.08;;;11.90;99.90;;;;;;5052550;28;20051;-63
2023/07/04 04:24:50;;;;;;;0.20;0.20;;;12.00;99.90;;;;;;5052702;28;20539;-63
2023/07/04 04:27:15;;;;;;;1.55;0.50;;;12.00;99.90;;;;;;5052445;28;20060;-64
2023/07/04 04:29:42;;;;;;;1.00;0.50;;;12.20;99.90;;;;;;5052383;28;20136;-63
2023/07/04 04:32:07;;;;;;;0.60;0.60;;;12.30;99.90;;;;;;5052289;28;20060;-63
2023/07/04 04:34:33;;;;;;;0.20;0.20;;;11.20;99.90;;;;;;5052433;28;20037;-63
2023/07/04 04:36:59;;;;;;;0.20;0.20;;;11.20;99.90;;;;;;5052455;28;20393;-63
2023/07/04 04:39:26;;;;;;;0.93;0.57;;;13.90;99.90;;;;;;5034305;28;20052;-65
2023/07/04 04:41:53;;;;;;;0.30;0.30;;;12.40;99.90;;;;;;5052213;28;20059;-65
2023/07/04 04:44:19;;;;;;;0.28;0.28;;;11.20;99.90;;;;;;5052113;28;20048;-63
2023/07/04 04:46:48;;;;;;;0.20;0.20;;;11.30;99.90;;;;;;5051995;28;20485;-63
2023/07/04 04:49:18;;;;;;;0.40;0.40;;;12.30;99.90;;;;;;5052175;28;20408;-63
2023/07/04 04:51:44;;;;;;;0.30;0.30;;;12.60;99.90;;;;;;5052076;28;20045;-64
2023/07/04 04:54:12;;;;;;;0.20;0.20;;;11.80;99.90;;;;;;5051955;28;20049;-64
2023/07/04 04:56:40;;;;;;;0.30;0.30;;;13.20;99.90;;;;;;5051922;28;20420;-64
2023/07/04 04:59:06;;;;;;;0.32;0.32;;;11.70;99.90;;;;;;5051963;28;20132;-64
2023/07/04 05:01:33;;;;;;;0.47;0.47;;;11.70;99.90;;;;;;5051641;28;20049;-63
2023/07/04 05:03:58;;;;;;;0.30;0.30;;;12.50;99.90;;;;;;5050583;28;20873;-64
2023/07/04 05:06:26;;;;;;;0.30;0.30;;;13.10;99.90;;;;;;5051805;28;20057;-64
2023/07/04 05:08:52;;;;;;;0.50;0.50;;;11.90;99.90;;;;;;5033872;28;20049;-63
2023/07/04 05:11:19;;;;;;;0.75;0.55;;;12.40;99.90;;;;;;5051676;28;20152;-63
2023/07/04 05:13:45;;;;;;;0.20;0.20;;;12.00;99.90;;;;;;5051540;28;20045;-63
2023/07/04 05:16:14;;;;;;;0.30;0.30;;;13.70;99.90;;;;;;5051458;28;20052;-65
2023/07/04 05:18:42;;;;;;;0.50;0.50;;;12.20;99.90;;;;;;5051618;28;20144;-63
2023/07/04 05:21:17;;;;;;;3.53;0.75;;;13.20;99.90;;;;;;5051673;28;20044;-63
2023/07/04 05:23:45;;;;;;;0.20;0.20;;;12.70;99.90;;;;;;5051389;28;20043;-63
2023/07/04 05:26:14;;;;;;;0.20;0.20;;;11.80;99.90;;;;;;5051381;28;20045;-64
2023/07/04 05:28:40;;;;;;;0.40;0.40;;;12.80;99.90;;;;;;5051331;28;20061;-63
2023/07/04 05:31:07;;;;;;;;;;;12.20;99.90;;;;;;5051928;28;20426;-63
2023/07/04 05:33:33;;;;;;;0.30;0.30;;;12.80;99.90;;;;;;5033514;28;19921;-63
2023/07/04 05:36:02;;;;;;;;;;;13.00;99.90;;;;;;5051734;28;20045;-63
2023/07/04 05:38:28;;;;;;;0.22;0.22;;;13.60;99.90;;;;;;5051380;28;19925;-63
2023/07/04 05:40:54;;;;;;;0.20;0.20;;;13.00;99.90;;;;;;5051222;28;20037;-64
2023/07/04 05:43:19;;;;;;;0.22;0.22;;;13.50;99.90;;;;;;5039643;28;20055;-63
2023/07/04 05:45:50;;;;;;;0.68;0.28;;;14.60;99.90;;;;;;5051258;28;20052;-65
2023/07/04 05:48:16;;;;;;;0.20;0.20;;;13.20;99.90;;;;;;5050855;28;20051;-66
2023/07/04 05:50:54;;;;;;;;;;;13.60;99.90;;;;;;5050729;28;20132;-64
2023/07/04 05:53:23;;;;;;;0.68;0.68;;;12.70;99.90;;;;;;5050187;28;20404;-63
2023/07/04 05:55:49;;;;;;;0.28;0.28;;;13.00;99.90;;;;;;5050731;28;20045;-63
2023/07/04 05:58:16;;;;;;;0.43;0.43;;;13.40;99.90;;;;;;5049854;28;20116;-62
2023/07/04 06:00:42;;;;;;;0.10;0.10;;;14.10;99.90;;;;;;5050953;28;20056;-64
2023/07/04 06:03:08;;;;;;;1.45;0.75;;;14.20;99.90;;;;;;5050323;28;20119;-63
2023/07/04 06:05:39;;;;;;;0.10;0.10;;;14.80;99.90;;;;;;5050211;28;20049;-63
2023/07/04 06:08:06;;;;;;;0.20;0.20;;;14.20;99.90;;;;;;5050391;28;20519;-63
2023/07/04 06:10:32;;;;;;;0.47;0.47;;;13.50;99.90;;;;;;5050765;28;20057;-63
2023/07/04 06:12:57;;;;;;;0.20;0.20;;;14.50;99.90;;;;;;5049697;28;20033;-63
2023/07/04 06:15:23;;;;;;;0.30;0.30;;;13.90;99.90;;;;;;5050457;28;20515;-64
2023/07/04 06:17:49;;;;;;;0.20;0.20;;;15.30;99.90;;;;;;5049883;28;20076;-63
2023/07/04 06:20:14;;;;;;;0.20;0.20;;;14.10;99.90;;;;;;5050021;28;20053;-63
2023/07/04 06:22:40;;;;;;;0.40;0.40;;;14.10;99.90;;;;;;5049600;28;20401;-63
2023/07/04 06:25:07;;;;;;;0.30;0.30;;;15.60;99.90;;;;;;5050476;28;20052;-62
2023/07/04 06:27:33;;;;;;;0.30;0.30;;;14.80;99.90;;;;;;5032403;28;20057;-64
2023/07/04 06:29:59;;;;;;;0.35;0.35;;;15.50;99.90;;;;;;5050122;28;20055;-64
2023/07/04 06:32:25;;;;;;;0.50;0.50;;;15.10;99.90;;;;;;5050315;28;20041;-63
2023/07/04 06:34:50;;;;;;;0.30;0.30;;;15.80;99.90;;;;;;5049713;28;20122;-63
2023/07/04 06:37:16;;;;;;;0.30;0.30;;;15.30;99.90;;;;;;5050111;28;20055;-64
2023/07/04 06:39:43;;;;;;;1.08;0.32;;;15.20;99.90;;;;;;5050318;28;20131;-64
2023/07/04 06:42:08;;;;;;;0.40;0.40;;;15.70;99.90;;;;;;5015888;28;20095;-66
2023/07/04 06:44:34;;;;;;;0.30;0.30;;;15.90;99.90;;;;;;5049814;28;20468;-65
2023/07/04 06:47:00;;;;;;;0.63;0.63;;;16.00;99.90;;;;;;5047804;28;20056;-72
2023/07/04 06:49:25;;;;;;;0.20;0.20;;;15.70;99.90;;;;;;5043513;28;20151;-64
2023/07/04 06:51:51;;;;;;;;;;;15.20;99.90;;;;;;5030530;28;20045;-66
2023/07/04 06:54:16;;;;;;;0.38;0.38;;;15.40;99.90;;;;;;5032338;28;20043;-66
2023/07/04 06:56:43;;;;;;;;;;;15.80;99.90;;;;;;5050641;28;20060;-66
2023/07/04 06:59:09;;;;;;;0.30;0.30;;;15.70;99.90;;;;;;5042515;28;19921;-66
2023/07/04 07:01:38;;;;;;;;;;;15.90;99.90;;;;;;5030372;28;20527;-64
2023/07/04 07:04:06;;;;;;;0.10;0.10;;;16.30;99.90;;;;;;5011502;28;20007;-62
2023/07/04 07:06:32;;;;;;;4.90;0.90;;;16.30;99.90;;;;;;5041002;28;20103;-64
2023/07/04 07:08:57;;;;;;;2.45;0.30;;;16.50;99.90;;;;;;5049889;28;20057;-62
2023/07/04 07:11:24;;;;;;;;;;;16.00;99.90;;;;;;5050081;28;20045;-61
2023/07/04 07:13:50;;;;;;;0.20;0.20;;;16.50;99.90;;;;;;5049536;28;19928;-64
2023/07/04 07:16:17;;;;;;;;;;;16.20;99.90;;;;;;5049889;28;20045;-64
2023/07/04 07:18:45;;;;;;;0.30;0.30;;;16.50;99.90;;;;;;5049337;28;19921;-69
2023/07/04 07:21:13;;;;;;;0.20;0.20;;;16.50;99.90;;;;;;5049184;28;20130;-66
2023/07/04 07:23:39;;;;;;;0.55;0.55;;;16.10;99.90;;;;;;5049587;28;20103;-65
2023/07/04 07:26:07;;;;;;;0.30;0.30;;;16.70;99.90;;;;;;5049130;28;20587;-63
2023/07/04 07:28:39;;;;;;;0.35;0.35;;;16.30;99.90;;;;;;5053190;28;20098;-66
2023/07/04 07:31:10;;;;;;;0.40;0.40;;;16.70;99.90;;;;;;5053354;28;20052;-62
2023/07/04 07:33:39;;;;;;;0.25;0.25;;;17.30;99.90;;;;;;5052522;28;20450;-64
2023/07/04 07:36:20;;;;;;;0.43;0.20;;;17.00;99.90;;;;;;5035039;28;20397;-63
2023/07/04 07:38:48;;;;;;;0.30;0.30;;;18.70;99.90;;;;;;5053340;28;20044;-62
2023/07/04 07:41:14;;;;;;;0.10;0.10;;;16.70;99.90;;;;;;5053254;28;20076;-65
2023/07/04 07:43:40;;;;;;;;;;;16.90;99.90;;;;;;5052877;28;20075;-62
2023/07/04 07:46:15;;;;;;;0.20;0.20;;;17.10;99.90;;;;;;5053235;28;19928;-61
2023/07/04 07:48:41;;;;;;;0.30;0.30;;;16.80;99.90;;;;;;5053173;28;20091;-62
2023/07/04 07:51:10;;;;;;;0.30;0.30;;;17.20;99.90;;;;;;5053129;28;20458;-63
2023/07/04 07:53:36;;;;;;;0.13;0.13;;;17.00;99.90;;;;;;5062154;28;20043;-63
2023/07/04 07:56:07;;;;;;;1.35;0.30;;;17.10;99.90;;;;;;5055275;28;20674;-63
2023/07/04 07:58:34;;;;;;;0.20;0.20;;;17.00;99.90;;;;;;5072872;28;20147;-64
2023/07/04 08:01:08;;;;;;;0.10;0.10;;;17.20;99.90;;;;;;5072688;28;20435;-64
2023/07/04 08:03:33;;;;;;;0.47;0.47;;;16.90;99.90;;;;;;5067451;28;20087;-64
2023/07/04 08:05:59;;;;;;;;;;;17.00;99.90;;;;;;5046826;28;20056;-63
2023/07/04 08:08:25;;;;;;;0.20;0.20;;;17.20;99.90;;;;;;5052676;28;20292;-66
2023/07/04 08:10:50;;;;;;;;;;;17.30;99.90;;;;;;5052993;28;20159;-62
2023/07/04 08:13:17;;;;;;;0.10;0.10;;;17.50;99.90;;;;;;5050034;28;19925;-72
2023/07/04 08:15:53;;;;;;;0.32;0.32;;;17.30;99.90;;;;;;5042327;28;20113;-65
2023/07/04 08:18:19;;;;;;;2.17;0.85;;;17.10;99.90;;;;;;5050333;28;20059;-68
2023/07/04 08:20:55;;;;;;;0.13;0.13;;;16.90;99.90;;;;;;5050497;28;20055;-66
2023/07/04 08:23:21;;;;;;;0.10;0.10;;;17.20;99.90;;;;;;5049579;28;20044;-66
2023/07/04 08:25:46;;;;;;;;;;;17.20;99.90;;;;;;5050487;28;20047;-65
2023/07/04 08:28:12;;;;;;;0.28;0.28;;;17.40;99.90;;;;;;5047666;28;19951;-69
2023/07/04 08:30:38;;;;;;;;;;;17.70;99.90;;;;;;5049580;28;20052;-67
2023/07/04 08:33:03;;;;;;;0.30;0.30;;;18.00;99.90;;;;;;5050494;28;19939;-67
2023/07/04 08:35:29;;;;;;;;;;;18.10;99.90;;;;;;5051406;28;20051;-65
2023/07/04 08:37:54;;;;;;;0.55;0.55;;;17.60;99.90;;;;;;5052002;28;19959;-64
2023/07/04 08:40:20;;;;;;;;;;;17.60;99.90;;;;;;5052573;28;20068;-66
2023/07/04 08:42:47;;;;;;;0.10;0.10;;;17.50;99.90;;;;;;5052071;28;20383;-69
2023/07/04 08:45:20;;;;;;;0.52;0.40;;;17.20;99.90;;;;;;5052054;28;20061;-65
2023/07/04 08:47:46;;;;;;;0.10;0.10;;;17.20;99.90;;;;;;5051985;28;20041;-68
2023/07/04 08:50:18;;;;;;;;;;;16.80;99.90;;;;;;5052453;28;20113;-66
2023/07/04 08:52:55;;;;;;;0.30;0.30;;;16.50;99.90;;;;;;5051854;28;20380;-65
2023/07/04 08:55:23;;;;;;;0.10;0.10;;;17.30;99.90;;;;;;5051949;28;20064;-68
2023/07/04 08:58:01;;;;;;;0.40;0.40;;;16.90;99.90;;;;;;5051810;28;20052;-66
2023/07/04 09:00:35;;;;;;;0.75;0.63;;;17.30;99.90;;;;;;5051825;28;20060;-66
2023/07/04 09:03:31;;;;;;;0.20;0.20;;;17.70;99.90;;;;;;5051789;28;20044;-65
2023/07/04 09:06:19;;;;;;;0.10;0.10;;;17.90;99.90;;;;;;5051674;28;20094;-68
2023/07/04 09:09:10;;;;;;;0.43;0.38;;;17.70;99.90;;;;;;5051679;28;20049;-66
2023/07/04 09:11:36;;;;;;;0.32;0.32;;;18.00;99.90;;;;;;5051534;28;20041;-66
2023/07/04 09:14:15;;;;;;;0.85;0.80;;;18.30;99.90;;;;;;5051492;28;20078;-65
2023/07/04 09:16:48;;;;;;;0.13;0.13;;;18.10;99.90;;;;;;5051656;28;20056;-66
2023/07/04 09:19:20;;;;;;;0.20;0.20;;;18.00;99.90;;;;;;5051504;28;20132;-65
2023/07/04 09:21:46;;;;;;;0.28;0.25;;;18.50;99.90;;;;;;5051542;28;20107;-64
2023/07/04 09:24:12;;;;;;;0.40;0.40;;;18.50;99.90;;;;;;5033293;28;20045;-66
2023/07/04 09:26:49;;;;;;;0.10;0.10;;;17.80;99.90;;;;;;5051415;28;20045;-65
2023/07/04 09:29:20;;;;;;;4.22;1.77;;;17.70;99.90;;;;;;5051557;28;20049;-65
2023/07/04 09:31:46;;;;;;;1.15;1.05;;;17.80;99.90;;;;;;5048069;28;20109;-75
2023/07/04 09:34:19;;;;;;;0.17;0.17;;;17.90;99.90;;;;;;5047597;28;20036;-63
2023/07/04 09:36:45;;;;;;;1.00;0.20;;;18.30;99.90;;;;;;5050779;28;20374;-65
2023/07/04 09:39:11;;;;;;;0.20;0.20;;;18.70;99.90;;;;;;5051458;28;20409;-66
2023/07/04 09:41:40;;;;;;;2.80;0.40;;;19.00;99.90;;;;;;5050999;28;20045;-68
2023/07/04 09:44:28;;;;;;;0.25;0.25;;;18.90;99.90;;;;;;5050873;28;20120;-65
2023/07/04 09:46:56;;;;;;;0.20;0.20;;;19.50;99.90;;;;;;5051273;28;20056;-67
2023/07/04 09:49:26;;;;;;;0.20;0.20;;;19.40;99.90;;;;;;5049591;28;20064;-64
2023/07/04 09:52:01;;;;;;;0.50;0.50;;;19.00;99.90;;;;;;5051110;28;20152;-62
2023/07/04 09:54:28;;;;;;;0.22;0.22;;;18.60;99.90;;;;;;5050560;28;20072;-63
2023/07/04 09:56:54;;;;;;;0.35;0.32;;;17.90;99.90;;;;;;5050654;28;20049;-62
2023/07/04 09:59:26;;;;;;;0.32;0.30;;;18.10;99.90;;;;;;5050692;28;20059;-63
2023/07/04 10:01:57;;;;;;;1.65;0.38;;;18.10;99.90;;;;;;5050139;28;20049;-62
2023/07/04 10:04:33;;;;;;;0.10;0.10;;;17.90;99.90;;;;;;5050338;28;20045;-62
2023/07/04 10:06:59;;;;;;;0.30;0.30;;;17.70;99.90;;;;;;5050982;28;20172;-63
2023/07/04 10:09:26;;;;;;;0.20;0.20;;;17.60;99.90;;;;;;5050270;28;20061;-66
2023/07/04 10:12:17;;;;;;;0.10;0.10;;;17.60;99.90;;;;;;5050379;28;20045;-64
2023/07/04 10:14:49;;;;;;;1.45;0.73;;;17.50;99.90;;;;;;5050634;28;20086;-65
2023/07/04 10:17:39;;;;;;;0.20;0.20;;;18.10;99.90;;;;;;5049908;28;20127;-66
2023/07/04 10:20:13;;;;;;;0.00;0.00;;;18.10;99.90;;;;;;5049245;28;20500;-66
2023/07/04 10:22:44;;;;;;;0.22;0.22;;;18.30;99.90;;;;;;5049918;28;20049;-65
2023/07/04 10:25:16;;;;;;;0.52;0.52;;;18.00;99.90;;;;;;5040302;28;20052;-64
2023/07/04 10:27:45;;;;;;;0.13;0.13;;;18.20;99.90;;;;;;5049981;28;20049;-66
2023/07/04 10:30:15;;;;;;;0.20;0.20;;;18.30;99.90;;;;;;5050024;28;20060;-62
2023/07/04 10:32:45;;;;;;;0.75;0.30;;;18.50;99.90;;;;;;5050096;28;20049;-64
2023/07/04 10:35:18;;;;;;;0.10;0.10;;;18.90;99.90;;;;;;5049847;28;20045;-63
2023/07/04 10:37:50;;;;;;;0.32;0.32;;;18.90;99.90;;;;;;5050346;28;20041;-64
2023/07/04 10:40:18;;;;;;;0.82;0.82;;;19.20;99.90;;;;;;5049381;28;20045;-64
2023/07/04 10:42:57;;;;;;;0.28;0.28;;;19.30;99.90;;;;;;5050210;28;20135;-64
2023/07/04 10:45:25;;;;;;;0.13;0.13;;;19.20;99.90;;;;;;5050393;28;20392;-66
2023/07/04 10:47:54;;;;;;;1.67;1.45;;;19.30;99.90;;;;;;5049653;28;20052;-65
2023/07/04 10:50:52;;;;;;;0.40;0.40;;;19.20;99.90;;;;;;5050152;28;20276;-65
2023/07/04 10:53:18;;;;;;;0.20;0.20;;;18.90;99.90;;;;;;5010721;28;20480;-64
2023/07/04 10:55:54;;;;;;;1.85;0.38;;;19.30;99.90;;;;;;5046875;28;20049;-66
2023/07/04 10:58:24;;;;;;;0.38;0.38;;;19.50;99.90;;;;;;5047726;28;20060;-64
2023/07/04 11:01:06;;;;;;;0.10;0.10;;;19.50;99.90;;;;;;5049449;28;20101;-65
2023/07/04 11:03:57;;;;;;;0.13;0.13;;;19.50;99.90;;;;;;5053921;28;20044;-66
2023/07/04 11:06:45;;;;;;;0.10;0.10;;;19.80;99.90;;;;;;4990247;28;20500;-64
2023/07/04 11:09:17;;;;;;;0.20;0.20;;;19.40;99.90;;;;;;5054206;28;20048;-68
2023/07/04 11:11:47;;;;;;;0.32;0.32;;;18.60;99.90;;;;;;5054133;28;20045;-63
2023/07/04 11:14:27;;;;;;;1.90;0.95;;;18.70;99.90;;;;;;5054008;28;20111;-66
2023/07/04 11:16:54;;;;;;;0.10;0.10;;;18.70;99.90;;;;;;5053829;28;20099;-64
2023/07/04 11:19:23;;;;;;;4.85;0.40;;;19.60;99.90;;;;;;5053710;28;20056;-67
2023/07/04 11:22:02;;;;;;;0.28;0.28;;;19.70;99.90;;;;;;5054041;28;20068;-62
2023/07/04 11:24:43;;;;;;;4.15;1.23;;;20.20;99.90;;;;;;5053876;28;20049;-65
2023/07/04 11:27:16;;;;;;;0.20;0.20;;;20.00;99.90;;;;;;5036247;28;20056;-65
2023/07/04 11:29:54;;;;;;;0.20;0.20;;;20.20;99.90;;;;;;5054003;28;20057;-65
2023/07/04 11:32:41;;;;;;;0.10;0.10;;;20.60;99.90;;;;;;5053756;28;20055;-64
2023/07/04 11:35:09;;;;;;;1.13;0.75;;;21.00;99.90;;;;;;5037240;28;20052;-64
2023/07/04 11:38:02;;;;;;;0.20;0.20;;;20.70;99.90;;;;;;5053591;28;20057;-65
2023/07/04 11:40:31;;;;;;;5.72;1.27;;;20.40;99.90;;;;;;5020075;28;20467;-63
2023/07/04 11:43:02;;;;;;;0.20;0.20;;;19.70;99.90;;;;;;5053287;28;20485;-65
2023/07/04 11:45:30;;;;;;;0.10;0.10;;;19.30;99.90;;;;;;5053412;28;20052;-65
2023/07/04 11:48:00;;;;;;;0.13;0.13;;;19.40;99.90;;;;;;5053741;28;20484;-65
2023/07/04 11:50:48;;;;;;;0.10;0.10;;;19.20;99.90;;;;;;5035403;28;20493;-68
2023/07/04 11:53:22;;;;;;;0.38;0.30;;;19.10;99.90;;;;;;5053227;28;20504;-64
2023/07/04 11:56:16;;;;;;;3.00;0.30;;;19.90;99.90;;;;;;5035538;28;20095;-65
2023/07/04 11:58:44;;;;;;;0.60;0.60;;;20.00;99.90;;;;;;5053097;28;20048;-65
2023/07/04 12:01:10;;;;;;;0.05;0.05;;;20.50;99.90;;;;;;5053374;28;20162;-67
2023/07/04 12:03:43;;;;;;;3.75;0.98;;;20.60;99.90;;;;;;5052948;28;20041;-66
2023/07/04 12:06:08;;;;;;;0.10;0.10;;;19.90;99.90;;;;;;5035131;28;20405;-66
2023/07/04 12:08:49;;;;;;;0.25;0.25;;;20.00;99.90;;;;;;5053014;28;20050;-64
2023/07/04 12:11:27;;;;;;;0.35;0.35;;;20.20;99.90;;;;;;5052596;28;20740;-65
2023/07/04 12:13:54;;;;;;;0.10;0.10;;;20.20;99.90;;;;;;5052422;28;20044;-66
2023/07/04 12:16:21;;;;;;;0.10;0.10;;;20.00;99.90;;;;;;5034178;28;20063;-65
2023/07/04 12:18:47;;;;;;;0.00;0.00;;;19.80;99.90;;;;;;5052652;28;20488;-66
2023/07/04 12:21:17;;;;;;;0.95;0.50;;;20.20;99.90;;;;;;5052867;28;20056;-66
2023/07/04 12:23:45;;;;;;;0.00;0.00;;;20.50;99.90;;;;;;5052515;28;20396;-65
2023/07/04 12:26:17;;;;;;;0.30;0.30;;;20.50;99.90;;;;;;5052574;28;20056;-62
2023/07/04 12:28:46;;;;;;;0.03;0.03;;;21.00;99.90;;;;;;5046360;28;20051;-67
2023/07/04 12:31:14;;;;;;;0.25;0.25;;;20.80;99.90;;;;;;5051831;28;20053;-65
2023/07/04 12:33:44;;;;;;;0.40;0.40;;;21.50;99.90;;;;;;5051340;28;20489;-65
2023/07/04 12:36:14;;;;;;;3.83;0.30;;;21.30;99.90;;;;;;5034135;28;20464;-65
2023/07/04 12:38:53;;;;;;;0.00;0.00;;;21.30;99.90;;;;;;5052144;28;20048;-65
2023/07/04 12:41:21;;;;;;;0.08;0.08;;;21.20;99.90;;;;;;5051939;28;20132;-72
2023/07/04 12:44:10;;;;;;;0.13;0.13;;;21.00;99.90;;;;;;5051875;28;20122;-69
2023/07/04 12:46:41;;;;;;;0.10;0.10;;;21.00;99.90;;;;;;5038761;28;20053;-68
2023/07/04 12:49:08;;;;;;;0.03;0.03;;;21.10;99.90;;;;;;5031344;28;20049;-68
2023/07/04 12:51:35;;;;;;;0.08;0.08;;;20.60;99.90;;;;;;5050194;28;20056;-66
2023/07/04 12:54:04;;;;;;;0.30;0.30;;;20.30;99.90;;;;;;5047955;28;20545;-71
2023/07/04 12:56:30;;;;;;;0.00;0.00;;;20.40;99.90;;;;;;5013978;28;20053;-67
2023/07/04 12:58:57;;;;;;;0.10;0.10;;;20.20;99.90;;;;;;5031582;28;20057;-65
2023/07/04 13:01:29;;;;;;;1.33;0.35;;;20.60;99.90;;;;;;5014322;28;20053;-67
2023/07/04 13:04:00;;;;;;;0.20;0.20;;;20.10;99.90;;;;;;5013131;28;20062;-66